createdAt,value
2019-05-12T00:00:07.827Z,79.736328
2019-05-12T00:01:08.612Z,79.736328
2019-05-12T00:02:07.656Z,79.736328
2019-05-12T00:03:08.411Z,79.736328
2019-05-12T00:04:08.187Z,79.840088
2019-05-12T00:05:08.701Z,79.736328
2019-05-12T00:06:08.493Z,79.736328
2019-05-12T00:07:08.538Z,79.632568
2019-05-12T00:08:08.190Z,79.876709
2019-05-12T00:09:08.340Z,79.876709
2019-05-12T00:10:08.581Z,79.980469
2019-05-12T00:11:08.758Z,80.187988
2019-05-12T00:12:08.214Z,80.187988
2019-05-12T00:13:08.445Z,80.187988
2019-05-12T00:14:08.592Z,80.291748
2019-05-12T00:15:08.156Z,80.328369
2019-05-12T00:16:08.839Z,80.432129
2019-05-12T00:17:08.180Z,80.639648
2019-05-12T00:18:09.040Z,80.950928
2019-05-12T00:19:09.211Z,81.054688
2019-05-12T00:20:08.486Z,81.158447
2019-05-12T00:21:08.768Z,81.158447
2019-05-12T00:22:08.223Z,81.402588
2019-05-12T00:23:22.651Z,81.298828
2019-05-12T00:24:09.401Z,81.402588
2019-05-12T00:25:08.843Z,81.713867
2019-05-12T00:26:08.632Z,81.817627
2019-05-12T00:27:08.787Z,81.921387
2019-05-12T00:28:08.886Z,82.025146
2019-05-12T00:29:09.001Z,82.232666
2019-05-12T00:30:10.135Z,82.336426
2019-05-12T00:31:09.197Z,82.440186
2019-05-12T00:32:09.321Z,82.476807
2019-05-12T00:33:09.646Z,82.684326
2019-05-12T00:34:09.565Z,82.788086
2019-05-12T00:35:09.670Z,83.099365
2019-05-12T00:36:09.679Z,83.410645
2019-05-12T00:37:09.902Z,83.618164
2019-05-12T00:38:09.877Z,83.514404
2019-05-12T00:39:09.974Z,83.514404
2019-05-12T00:40:10.125Z,83.410645
2019-05-12T00:41:11.230Z,83.306885
2019-05-12T00:42:10.331Z,83.410645
2019-05-12T00:43:10.487Z,83.306885
2019-05-12T00:44:10.589Z,83.306885
2019-05-12T00:45:10.718Z,83.306885
2019-05-12T00:46:10.823Z,83.306885
2019-05-12T00:47:10.953Z,83.410645
2019-05-12T00:48:11.095Z,83.618164
2019-05-12T00:49:11.247Z,83.514404
2019-05-12T00:50:11.338Z,83.679199
2019-05-12T00:51:11.465Z,83.679199
2019-05-12T00:52:11.562Z,83.886719
2019-05-12T00:53:11.713Z,83.990479
2019-05-12T00:54:11.864Z,83.886719
2019-05-12T00:55:11.835Z,83.886719
2019-05-12T00:56:11.962Z,83.886719
2019-05-12T00:57:12.078Z,84.094238
2019-05-12T00:58:12.238Z,84.094238
2019-05-12T00:59:12.330Z,84.057617
2019-05-12T01:00:12.463Z,83.953857
2019-05-12T01:01:12.596Z,83.953857
2019-05-12T01:02:12.711Z,83.953857
2019-05-12T01:03:12.774Z,83.850098
2019-05-12T01:04:12.893Z,83.850098
2019-05-12T01:05:12.897Z,83.850098
2019-05-12T01:06:12.970Z,83.953857
2019-05-12T01:07:12.974Z,83.953857
2019-05-12T01:08:13.165Z,83.746338
2019-05-12T01:09:13.133Z,83.642578
2019-05-12T01:10:13.223Z,83.331299
2019-05-12T01:11:13.345Z,83.331299
2019-05-12T01:12:13.459Z,83.331299
2019-05-12T01:13:13.603Z,83.227539
2019-05-12T01:14:13.739Z,83.227539
2019-05-12T01:15:13.725Z,83.123779
2019-05-12T01:16:13.839Z,83.123779
2019-05-12T01:17:13.965Z,83.02002
2019-05-12T01:18:14.085Z,83.123779
2019-05-12T01:19:14.273Z,83.123779
2019-05-12T01:20:14.231Z,83.123779
2019-05-12T01:21:14.346Z,83.227539
2019-05-12T01:22:14.461Z,83.087158
2019-05-12T01:23:14.607Z,83.190918
2019-05-12T01:24:14.762Z,83.190918
2019-05-12T01:25:14.828Z,83.398438
2019-05-12T01:26:14.941Z,83.087158
2019-05-12T01:27:15.040Z,83.087158
2019-05-12T01:28:15.136Z,82.983398
2019-05-12T01:29:17.487Z,83.123779
2019-05-12T01:30:17.902Z,83.123779
2019-05-12T01:31:15.366Z,83.02002
2019-05-12T01:32:15.485Z,82.91626
2019-05-12T01:33:15.531Z,82.8125
2019-05-12T01:34:15.577Z,82.8125
2019-05-12T01:35:15.690Z,82.8125
2019-05-12T01:36:18.005Z,82.751465
2019-05-12T01:37:17.903Z,82.751465
2019-05-12T01:38:18.064Z,82.855225
2019-05-12T01:39:18.527Z,82.952881
2019-05-12T01:40:16.054Z,82.952881
2019-05-12T01:41:17.962Z,82.995605
2019-05-12T01:42:18.024Z,82.995605
2019-05-12T01:43:18.576Z,83.203125
2019-05-12T01:44:18.339Z,83.306885
2019-05-12T01:45:17.967Z,83.410645
2019-05-12T01:46:18.098Z,83.447266
2019-05-12T01:47:18.705Z,83.551025
2019-05-12T01:48:18.305Z,83.654785
2019-05-12T01:49:18.629Z,83.758545
2019-05-12T01:50:17.749Z,83.966064
2019-05-12T01:51:17.761Z,84.173584
2019-05-12T01:52:17.806Z,84.381104
2019-05-12T01:53:18.062Z,84.692383
2019-05-12T01:54:18.833Z,85.003662
2019-05-12T01:55:18.546Z,85.418701
2019-05-12T01:56:18.183Z,85.314941
2019-05-12T01:57:18.773Z,85.479736
2019-05-12T01:58:19.270Z,85.375977
2019-05-12T01:59:18.472Z,85.272217
2019-05-12T02:00:18.250Z,85.168457
2019-05-12T02:01:18.469Z,85.168457
2019-05-12T02:02:18.059Z,85.064697
2019-05-12T02:03:17.985Z,85.168457
2019-05-12T02:04:18.258Z,85.479736
2019-05-12T02:05:18.353Z,85.479736
2019-05-12T02:06:18.530Z,85.479736
2019-05-12T02:07:18.580Z,85.375977
2019-05-12T02:08:18.553Z,85.375977
2019-05-12T02:09:18.757Z,85.272217
2019-05-12T02:10:18.624Z,85.168457
2019-05-12T02:11:18.787Z,85.375977
2019-05-12T02:12:18.911Z,85.375977
2019-05-12T02:13:18.987Z,85.272217
2019-05-12T02:14:19.138Z,85.272217
2019-05-12T02:15:19.243Z,85.168457
2019-05-12T02:16:19.390Z,85.479736
2019-05-12T02:17:19.352Z,85.522461
2019-05-12T02:18:19.495Z,85.522461
2019-05-12T02:19:19.604Z,85.522461
2019-05-12T02:20:19.714Z,85.522461
2019-05-12T02:21:19.873Z,85.522461
2019-05-12T02:22:19.832Z,85.418701
2019-05-12T02:23:19.961Z,85.522461
2019-05-12T02:24:26.494Z,85.418701
2019-05-12T02:25:20.168Z,85.522461
2019-05-12T02:26:20.303Z,85.626221
2019-05-12T02:27:20.420Z,85.626221
2019-05-12T02:28:20.533Z,85.83374
2019-05-12T02:29:20.643Z,85.9375
2019-05-12T02:30:20.815Z,85.9375
2019-05-12T02:31:21.037Z,86.346436
2019-05-12T02:32:23.707Z,86.450195
2019-05-12T02:33:24.229Z,86.346436
2019-05-12T02:34:21.223Z,86.2854
2019-05-12T02:35:24.370Z,86.181641
2019-05-12T02:36:24.797Z,86.077881
2019-05-12T02:37:21.617Z,86.077881
2019-05-12T02:38:24.949Z,85.974121
2019-05-12T02:39:24.589Z,85.870361
2019-05-12T02:40:24.880Z,85.870361
2019-05-12T02:41:22.049Z,85.974121
2019-05-12T02:42:24.344Z,86.077881
2019-05-12T02:43:24.347Z,86.181641
2019-05-12T02:44:24.687Z,86.077881
2019-05-12T02:45:25.163Z,86.120605
2019-05-12T02:46:25.350Z,86.181641
2019-05-12T02:47:24.074Z,86.431885
2019-05-12T02:48:24.514Z,86.431885
2019-05-12T02:49:24.383Z,86.535645
2019-05-12T02:50:24.736Z,86.535645
2019-05-12T02:51:24.778Z,86.535645
2019-05-12T02:52:24.886Z,86.535645
2019-05-12T02:53:24.749Z,86.639404
2019-05-12T02:54:25.241Z,86.950684
2019-05-12T02:55:25.614Z,86.950684
2019-05-12T02:56:25.542Z,86.846924
2019-05-12T02:57:25.461Z,86.743164
2019-05-12T02:58:25.350Z,86.846924
2019-05-12T02:59:25.222Z,86.950684
2019-05-12T03:00:24.345Z,86.950684
2019-05-12T03:01:24.610Z,87.158203
2019-05-12T03:02:24.760Z,87.677002
2019-05-12T03:03:25.216Z,87.780762
2019-05-12T03:04:24.956Z,87.677002
2019-05-12T03:05:25.020Z,87.573242
2019-05-12T03:06:25.246Z,87.506104
2019-05-12T03:07:25.546Z,87.506104
2019-05-12T03:08:25.759Z,87.506104
2019-05-12T03:09:25.016Z,87.298584
2019-05-12T03:10:25.376Z,87.194824
2019-05-12T03:11:25.249Z,87.091064
2019-05-12T03:12:25.749Z,86.987305
2019-05-12T03:13:25.657Z,86.987305
2019-05-12T03:14:25.514Z,86.987305
2019-05-12T03:15:25.538Z,86.987305
2019-05-12T03:16:25.953Z,86.987305
2019-05-12T03:17:25.767Z,87.194824
2019-05-12T03:18:25.872Z,87.298584
2019-05-12T03:19:25.818Z,87.402344
2019-05-12T03:20:25.901Z,87.506104
2019-05-12T03:21:27.033Z,87.506104
2019-05-12T03:22:26.062Z,87.609863
2019-05-12T03:23:26.337Z,87.609863
2019-05-12T03:24:27.213Z,87.713623
2019-05-12T03:25:29.974Z,87.817383
2019-05-12T03:26:26.319Z,87.780762
2019-05-12T03:27:26.356Z,87.780762
2019-05-12T03:28:26.512Z,87.780762
2019-05-12T03:29:26.586Z,87.884521
2019-05-12T03:30:28.862Z,88.092041
2019-05-12T03:31:31.174Z,88.195801
2019-05-12T03:32:28.186Z,88.195801
2019-05-12T03:33:34.198Z,88.153076
2019-05-12T03:34:29.194Z,88.256836
2019-05-12T03:35:31.850Z,88.256836
2019-05-12T03:36:32.966Z,88.360596
2019-05-12T03:37:31.143Z,88.360596
2019-05-12T03:38:27.577Z,88.671875
2019-05-12T03:39:26.949Z,88.568115
2019-05-12T03:40:26.997Z,88.568115
2019-05-12T03:41:27.096Z,88.525391
2019-05-12T03:42:27.221Z,88.525391
2019-05-12T03:43:28.143Z,88.525391
2019-05-12T03:44:27.331Z,88.421631
2019-05-12T03:45:27.330Z,88.214111
2019-05-12T03:46:27.423Z,88.110352
2019-05-12T03:47:27.461Z,88.006592
2019-05-12T03:48:27.587Z,87.902832
2019-05-12T03:49:27.703Z,87.799072
2019-05-12T03:50:27.821Z,87.695312
2019-05-12T03:51:27.903Z,87.591553
2019-05-12T03:52:28.102Z,87.591553
2019-05-12T03:53:28.066Z,87.487793
2019-05-12T03:54:28.142Z,87.554932
2019-05-12T03:55:35.740Z,87.554932
2019-05-12T03:56:28.331Z,87.554932
2019-05-12T03:57:28.412Z,87.554932
2019-05-12T03:58:28.507Z,87.347412
2019-05-12T03:59:28.621Z,87.347412
2019-05-12T04:00:28.696Z,87.347412
2019-05-12T04:01:28.779Z,87.451172
2019-05-12T04:02:28.902Z,87.554932
2019-05-12T04:03:28.950Z,87.554932
2019-05-12T04:04:29.040Z,87.554932
2019-05-12T04:05:29.139Z,87.451172
2019-05-12T04:06:29.208Z,87.451172
2019-05-12T04:07:29.317Z,87.451172
2019-05-12T04:08:29.425Z,87.451172
2019-05-12T04:09:29.531Z,87.554932
2019-05-12T04:10:29.643Z,87.658691
2019-05-12T04:11:29.714Z,87.658691
2019-05-12T04:12:29.769Z,87.658691
2019-05-12T04:13:29.852Z,87.866211
2019-05-12T04:14:29.908Z,87.866211
2019-05-12T04:15:30.014Z,87.866211
2019-05-12T04:16:30.104Z,87.969971
2019-05-12T04:17:30.214Z,87.866211
2019-05-12T04:18:30.313Z,87.762451
2019-05-12T04:19:30.425Z,87.762451
2019-05-12T04:20:30.568Z,87.615967
2019-05-12T04:21:30.645Z,87.615967
2019-05-12T04:22:34.688Z,87.512207
2019-05-12T04:23:30.797Z,87.408447
2019-05-12T04:24:35.487Z,87.408447
2019-05-12T04:25:46.145Z,87.408447
2019-05-12T04:26:31.018Z,87.200928
2019-05-12T04:27:34.547Z,87.097168
2019-05-12T04:28:31.165Z,86.889648
2019-05-12T04:29:31.280Z,86.785889
2019-05-12T04:30:31.362Z,86.889648
2019-05-12T04:31:34.739Z,86.785889
2019-05-12T04:32:31.591Z,86.785889
2019-05-12T04:33:34.355Z,86.956787
2019-05-12T04:34:34.252Z,86.749268
2019-05-12T04:35:34.796Z,86.541748
2019-05-12T04:36:35.073Z,86.541748
2019-05-12T04:37:34.808Z,86.541748
2019-05-12T04:38:35.132Z,86.334229
2019-05-12T04:39:34.082Z,86.126709
2019-05-12T04:40:35.224Z,86.126709
2019-05-12T04:41:35.059Z,86.022949
2019-05-12T04:42:34.908Z,86.022949
2019-05-12T04:43:35.176Z,85.919189
2019-05-12T04:44:34.673Z,85.675049
2019-05-12T04:45:34.551Z,85.882568
2019-05-12T04:46:34.541Z,85.882568
2019-05-12T04:47:34.882Z,85.778809
2019-05-12T04:48:35.662Z,85.675049
2019-05-12T04:49:34.552Z,85.675049
2019-05-12T04:50:35.270Z,85.571289
2019-05-12T04:51:34.867Z,85.571289
2019-05-12T04:52:35.118Z,85.36377
2019-05-12T04:53:35.119Z,85.113525
2019-05-12T04:54:35.515Z,85.113525
2019-05-12T04:55:35.489Z,84.912109
2019-05-12T04:56:35.729Z,84.80835
2019-05-12T04:57:34.577Z,84.80835
2019-05-12T04:58:35.016Z,84.912109
2019-05-12T04:59:34.548Z,85.113525
2019-05-12T05:00:35.033Z,85.180664
2019-05-12T05:01:34.752Z,85.076904
2019-05-12T05:02:36.234Z,85.076904
2019-05-12T05:03:34.997Z,85.284424
2019-05-12T05:04:34.736Z,85.388184
2019-05-12T05:05:35.529Z,85.284424
2019-05-12T05:06:34.541Z,85.076904
2019-05-12T05:07:35.797Z,84.973145
2019-05-12T05:08:34.990Z,84.973145
2019-05-12T05:09:35.126Z,84.765625
2019-05-12T05:10:35.090Z,84.558105
2019-05-12T05:11:35.117Z,84.661865
2019-05-12T05:12:35.084Z,84.765625
2019-05-12T05:13:38.782Z,84.765625
2019-05-12T05:14:35.180Z,84.973145
2019-05-12T05:15:35.595Z,85.345459
2019-05-12T05:16:35.457Z,85.449219
2019-05-12T05:17:35.356Z,85.241699
2019-05-12T05:18:35.437Z,85.040283
2019-05-12T05:19:35.499Z,84.588623
2019-05-12T05:20:35.579Z,84.588623
2019-05-12T05:21:35.683Z,84.790039
2019-05-12T05:22:38.023Z,84.997559
2019-05-12T05:23:35.900Z,84.588623
2019-05-12T05:24:36.942Z,84.790039
2019-05-12T05:25:36.007Z,84.997559
2019-05-12T05:26:37.363Z,84.790039
2019-05-12T05:27:36.177Z,84.686279
2019-05-12T05:28:36.169Z,84.753418
2019-05-12T05:29:37.190Z,84.649658
2019-05-12T05:30:36.302Z,84.545898
2019-05-12T05:31:36.399Z,83.721924
2019-05-12T05:32:36.572Z,83.825684
2019-05-12T05:33:36.697Z,83.929443
2019-05-12T05:34:36.780Z,84.130859
2019-05-12T05:35:39.495Z,83.410645
2019-05-12T05:36:37.006Z,83.203125
2019-05-12T05:37:41.417Z,83.477783
2019-05-12T05:38:37.214Z,83.782959
2019-05-12T05:39:44.187Z,83.679199
2019-05-12T05:40:37.330Z,83.270264
2019-05-12T05:41:40.038Z,83.026123
2019-05-12T05:42:38.444Z,83.435059
2019-05-12T05:43:37.563Z,83.233643
2019-05-12T05:44:38.054Z,82.818604
2019-05-12T05:45:37.733Z,82.922363
2019-05-12T05:46:38.866Z,83.331299
2019-05-12T05:47:37.904Z,83.398438
2019-05-12T05:48:38.025Z,83.502197
2019-05-12T05:49:38.086Z,83.502197
2019-05-12T05:50:38.157Z,83.087158
2019-05-12T05:51:44.387Z,82.574463
2019-05-12T05:52:38.912Z,82.434082
2019-05-12T05:53:38.344Z,82.537842
2019-05-12T05:54:40.135Z,82.226562
2019-05-12T05:55:38.443Z,82.330322
2019-05-12T05:56:42.573Z,82.641602
2019-05-12T05:57:38.626Z,82.739258
2019-05-12T05:58:40.103Z,82.495117
2019-05-12T05:59:38.718Z,82.293701
2019-05-12T06:00:39.530Z,82.495117
2019-05-12T06:01:40.007Z,82.702637
2019-05-12T06:02:40.290Z,82.049561
2019-05-12T06:03:38.958Z,81.225586
2019-05-12T06:04:43.791Z,80.609131
2019-05-12T06:05:40.084Z,80.706787
2019-05-12T06:06:42.355Z,80.297852
2019-05-12T06:07:40.365Z,80.401611
2019-05-12T06:08:40.574Z,79.333496
2019-05-12T06:09:39.557Z,78.613281
2019-05-12T06:10:40.549Z,79.02832
2019-05-12T06:11:39.725Z,77.789307
2019-05-12T06:12:40.291Z,77.484131
2019-05-12T06:13:40.291Z,77.789307
2019-05-12T06:14:40.890Z,77.581787
2019-05-12T06:15:43.326Z,77.069092
2019-05-12T06:16:40.177Z,77.581787
2019-05-12T06:17:40.194Z,76.928711
2019-05-12T06:18:40.233Z,76.043701
2019-05-12T06:19:40.267Z,76.928711
2019-05-12T06:20:40.289Z,77.13623
2019-05-12T06:21:40.269Z,77.13623
2019-05-12T06:22:40.445Z,77.13623
2019-05-12T06:23:43.411Z,77.23999
2019-05-12T06:24:40.594Z,77.44751
2019-05-12T06:25:47.225Z,77.13623
2019-05-12T06:26:54.458Z,76.898193
2019-05-12T06:27:40.890Z,76.99585
2019-05-12T06:28:41.858Z,77.203369
2019-05-12T06:29:41.090Z,76.898193
2019-05-12T06:30:46.979Z,76.898193
2019-05-12T06:31:43.862Z,76.586914
2019-05-12T06:32:47.285Z,76.037598
2019-05-12T06:33:41.406Z,76.965332
2019-05-12T06:34:43.489Z,76.965332
2019-05-12T06:35:42.894Z,76.654053
2019-05-12T06:36:43.884Z,76.861572
2019-05-12T06:37:43.741Z,77.679443
2019-05-12T06:38:43.438Z,78.094482
2019-05-12T06:39:43.540Z,77.062988
2019-05-12T06:40:42.900Z,77.374268
2019-05-12T06:41:44.147Z,77.746582
2019-05-12T06:42:43.529Z,77.337646
2019-05-12T06:43:44.899Z,77.130127
2019-05-12T06:44:43.741Z,76.312256
2019-05-12T06:45:44.951Z,75.799561
2019-05-12T06:46:44.190Z,75.488281
2019-05-12T06:47:45.128Z,74.841309
2019-05-12T06:48:45.324Z,74.224854
2019-05-12T06:49:43.945Z,74.633789
2019-05-12T06:50:44.132Z,74.938965
2019-05-12T06:51:44.509Z,72.991943
2019-05-12T06:52:44.489Z,73.095703
2019-05-12T06:53:44.304Z,73.297119
2019-05-12T06:54:51.114Z,73.883057
2019-05-12T06:55:43.434Z,73.571777
2019-05-12T06:56:43.564Z,73.980713
2019-05-12T06:57:45.703Z,73.266602
2019-05-12T06:58:44.200Z,72.241211
2019-05-12T06:59:50.852Z,72.546387
2019-05-12T07:00:43.899Z,72.851562
2019-05-12T07:01:44.924Z,72.241211
2019-05-12T07:02:49.857Z,73.162842
2019-05-12T07:03:44.071Z,74.084473
2019-05-12T07:04:47.245Z,72.851562
2019-05-12T07:05:45.243Z,73.059082
2019-05-12T07:06:44.195Z,72.546387
2019-05-12T07:07:45.975Z,72.241211
2019-05-12T07:08:44.006Z,72.241211
2019-05-12T07:09:51.864Z,72.10083
2019-05-12T07:10:46.821Z,71.795654
2019-05-12T07:11:49.815Z,70.874023
2019-05-12T07:12:55.855Z,71.386719
2019-05-12T07:13:44.466Z,71.520996
2019-05-12T07:14:48.849Z,70.904541
2019-05-12T07:15:44.834Z,71.929932
2019-05-12T07:16:44.784Z,72.241211
2019-05-12T07:17:49.549Z,72.546387
2019-05-12T07:18:45.101Z,72.338867
2019-05-12T07:19:45.121Z,72.821045
2019-05-12T07:20:45.330Z,71.826172
2019-05-12T07:21:45.346Z,71.826172
2019-05-12T07:22:48.402Z,71.624756
2019-05-12T07:23:45.626Z,71.313477
2019-05-12T07:24:49.930Z,70.800781
2019-05-12T07:25:45.795Z,70.697021
2019-05-12T07:26:48.005Z,70.904541
2019-05-12T07:27:54.735Z,71.112061
2019-05-12T07:28:45.952Z,70.697021
2019-05-12T07:29:46.097Z,70.904541
2019-05-12T07:30:46.118Z,70.837402
2019-05-12T07:31:46.116Z,69.311523
2019-05-12T07:32:46.134Z,62.768555
2019-05-12T07:33:47.253Z,58.526611
2019-05-12T07:34:46.258Z,54.388428
2019-05-12T07:35:46.282Z,55.67627
2019-05-12T07:36:47.254Z,54.388428
2019-05-12T07:37:46.277Z,54.79126
2019-05-12T07:38:46.275Z,54.815674
2019-05-12T07:39:49.344Z,55.834961
2019-05-12T07:40:46.598Z,55.249023
2019-05-12T07:41:50.696Z,56.011963
2019-05-12T07:42:46.737Z,53.69873
2019-05-12T07:43:50.426Z,51.879883
2019-05-12T07:44:47.882Z,50.695801
2019-05-12T07:45:46.897Z,49.188232
2019-05-12T07:46:49.410Z,46.746826
2019-05-12T07:47:47.035Z,46.984863
2019-05-12T07:48:50.675Z,44.226074
2019-05-12T07:49:47.067Z,44.07959
2019-05-12T07:50:50.105Z,42.272949
2019-05-12T07:51:49.998Z,42.718506
2019-05-12T07:52:47.062Z,43.579102
2019-05-12T07:53:55.088Z,42.474365
2019-05-12T07:54:47.227Z,42.456055
2019-05-12T07:55:49.244Z,45.056152
2019-05-12T07:56:48.406Z,45.178223
2019-05-12T07:57:54.798Z,45.721436
2019-05-12T07:58:53.753Z,44.549561
2019-05-12T07:59:47.674Z,47.967529
2019-05-12T08:00:47.650Z,48.138428
2019-05-12T08:01:51.807Z,50.128174
2019-05-12T08:02:47.821Z,50.98877
2019-05-12T08:03:50.888Z,52.380371
2019-05-12T08:04:47.970Z,53.167725
2019-05-12T08:05:51.178Z,55.377197
2019-05-12T08:06:48.051Z,56.933594
2019-05-12T08:07:50.387Z,57.189941
2019-05-12T08:08:50.433Z,58.544922
2019-05-12T08:09:48.174Z,59.356689
2019-05-12T08:10:51.292Z,59.796143
2019-05-12T08:11:48.321Z,61.047363
2019-05-12T08:12:51.007Z,60.766602
2019-05-12T08:13:48.483Z,60.491943
2019-05-12T08:14:48.502Z,61.71875
2019-05-12T08:15:50.269Z,62.463379
2019-05-12T08:16:48.736Z,63.586426
2019-05-12T08:17:49.188Z,63.043213
2019-05-12T08:18:48.885Z,61.895752
2019-05-12T08:19:48.929Z,61.560059
2019-05-12T08:20:48.939Z,59.973145
2019-05-12T08:21:49.344Z,59.283447
2019-05-12T08:22:49.002Z,59.997559
2019-05-12T08:23:50.159Z,60.845947
2019-05-12T08:24:49.172Z,60.870361
2019-05-12T08:25:49.236Z,60.766602
2019-05-12T08:26:58.717Z,60.461426
2019-05-12T08:27:51.422Z,60.284424
2019-05-12T08:28:50.260Z,61.383057
2019-05-12T08:29:52.298Z,60.046387
2019-05-12T08:30:52.106Z,58.154297
2019-05-12T08:31:49.387Z,56.878662
2019-05-12T08:32:54.429Z,55.200195
2019-05-12T08:33:49.388Z,54.003906
2019-05-12T08:34:49.441Z,53.778076
2019-05-12T08:35:49.446Z,52.380371
2019-05-12T08:36:53.029Z,53.753662
2019-05-12T08:37:49.506Z,52.911377
2019-05-12T08:38:49.516Z,53.497314
2019-05-12T08:39:53.101Z,54.870605
2019-05-12T08:40:51.161Z,54.89502
2019-05-12T08:41:49.815Z,55.737305
2019-05-12T08:42:49.843Z,56.274414
2019-05-12T08:43:54.585Z,57.836914
2019-05-12T08:44:49.870Z,57.116699
2019-05-12T08:45:49.862Z,58.575439
2019-05-12T08:46:52.119Z,58.679199
2019-05-12T08:47:50.034Z,58.477783
2019-05-12T08:48:51.397Z,58.551025
2019-05-12T08:49:55.904Z,58.447266
2019-05-12T08:50:50.045Z,58.856201
2019-05-12T08:51:55.644Z,57.836914
2019-05-12T08:52:50.208Z,58.624268
2019-05-12T08:53:53.787Z,56.04248
2019-05-12T08:54:50.359Z,58.80127
2019-05-12T08:55:50.355Z,57.244873
2019-05-12T08:56:50.934Z,56.835938
2019-05-12T08:57:50.668Z,56.628418
2019-05-12T08:58:51.949Z,56.835938
2019-05-12T08:59:54.492Z,55.407715
2019-05-12T09:00:50.884Z,56.427002
2019-05-12T09:01:50.901Z,57.165527
2019-05-12T09:02:50.895Z,57.855225
2019-05-12T09:03:53.207Z,59.692383
2019-05-12T09:04:53.146Z,56.097412
2019-05-12T09:05:50.936Z,55.303955
2019-05-12T09:06:56.184Z,56.628418
2019-05-12T09:07:51.089Z,56.298828
2019-05-12T09:08:51.137Z,55.688477
2019-05-12T09:09:53.337Z,57.116699
2019-05-12T09:10:52.953Z,54.156494
2019-05-12T09:11:51.276Z,54.669189
2019-05-12T09:12:51.308Z,55.072021
2019-05-12T09:13:52.336Z,55.865479
2019-05-12T09:14:54.433Z,54.742432
2019-05-12T09:15:51.310Z,52.398682
2019-05-12T09:16:53.531Z,53.546143
2019-05-12T09:17:54.362Z,53.674316
2019-05-12T09:18:51.522Z,53.69873
2019-05-12T09:19:54.782Z,54.333496
2019-05-12T09:20:53.386Z,54.846191
2019-05-12T09:21:54.086Z,54.437256
2019-05-12T09:22:52.641Z,54.949951
2019-05-12T09:23:55.440Z,54.260254
2019-05-12T09:24:53.358Z,55.383301
2019-05-12T09:25:53.433Z,54.669189
2019-05-12T09:26:53.775Z,54.638672
2019-05-12T09:27:53.729Z,55.633545
2019-05-12T09:28:54.147Z,54.693604
2019-05-12T09:29:53.888Z,56.097412
2019-05-12T09:30:53.882Z,51.708984
2019-05-12T09:31:53.176Z,52.423096
2019-05-12T09:32:55.484Z,52.728271
2019-05-12T09:33:54.536Z,52.55127
2019-05-12T09:34:53.803Z,51.733398
2019-05-12T09:35:53.993Z,52.368164
2019-05-12T09:36:59.439Z,51.678467
2019-05-12T09:37:53.501Z,52.215576
2019-05-12T09:38:53.529Z,53.033447
2019-05-12T09:39:53.810Z,54.766846
2019-05-12T09:41:00.539Z,53.851318
2019-05-12T09:41:54.823Z,54.541016
2019-05-12T09:42:53.309Z,55.151367
2019-05-12T09:43:53.392Z,53.570557
2019-05-12T09:44:53.937Z,52.34375
2019-05-12T09:45:56.315Z,52.44751
2019-05-12T09:46:53.486Z,53.594971
2019-05-12T09:47:53.971Z,54.284668
2019-05-12T09:48:55.079Z,52.856445
2019-05-12T09:49:53.546Z,53.363037
2019-05-12T09:51:00.190Z,52.44751
2019-05-12T09:51:54.378Z,52.856445
2019-05-12T09:52:55.553Z,53.570557
2019-05-12T09:53:55.398Z,52.856445
2019-05-12T09:54:53.533Z,53.466797
2019-05-12T09:55:53.865Z,52.142334
2019-05-12T09:56:55.251Z,52.752686
2019-05-12T09:57:54.376Z,52.929688
2019-05-12T09:59:01.278Z,50.689697
2019-05-12T09:59:57.979Z,50.408936
2019-05-12T10:00:54.289Z,52.728271
2019-05-12T10:01:54.140Z,52.11792
2019-05-12T10:02:58.817Z,52.502441
2019-05-12T10:03:54.318Z,51.580811
2019-05-12T10:04:56.261Z,51.68457
2019-05-12T10:05:53.871Z,50.030518
2019-05-12T10:06:53.878Z,49.749756
2019-05-12T10:07:53.879Z,49.749756
2019-05-12T10:08:55.134Z,51.275635
2019-05-12T10:09:57.520Z,49.237061
2019-05-12T10:10:54.041Z,50.360107
2019-05-12T10:12:00.451Z,50.384521
2019-05-12T10:12:54.189Z,52.600098
2019-05-12T10:13:54.386Z,51.074219
2019-05-12T10:14:54.350Z,49.749756
2019-05-12T10:15:58.618Z,50.866699
2019-05-12T10:16:54.356Z,52.172852
2019-05-12T10:17:54.379Z,52.960205
2019-05-12T10:18:54.524Z,53.955078
2019-05-12T10:19:58.050Z,50.366211
2019-05-12T10:20:54.746Z,49.859619
2019-05-12T10:21:59.128Z,50.872803
2019-05-12T10:22:54.765Z,50.750732
2019-05-12T10:24:00.049Z,49.328613
2019-05-12T10:24:58.432Z,48.205566
2019-05-12T10:25:55.267Z,48.840332
2019-05-12T10:26:55.238Z,49.041748
2019-05-12T10:27:55.270Z,48.669434
2019-05-12T10:28:58.158Z,46.875
2019-05-12T10:29:55.442Z,45.391846
2019-05-12T10:30:56.953Z,43.62793
2019-05-12T10:31:55.548Z,44.073486
2019-05-12T10:32:55.573Z,44.616699
2019-05-12T10:33:58.019Z,40.820312
2019-05-12T10:34:55.746Z,39.611816
2019-05-12T10:35:59.263Z,40.783691
2019-05-12T10:36:55.794Z,35.71167
2019-05-12T10:38:00.068Z,36.083984
2019-05-12T10:38:55.963Z,37.835693
2019-05-12T10:39:55.976Z,37.5
2019-05-12T10:40:56.029Z,36.199951
2019-05-12T10:41:56.078Z,38.73291
2019-05-12T10:42:56.080Z,38.970947
2019-05-12T10:43:57.727Z,39.916992
2019-05-12T10:44:56.696Z,42.071533
2019-05-12T10:45:56.148Z,42.755127
2019-05-12T10:46:56.110Z,43.408203
2019-05-12T10:47:56.128Z,44.177246
2019-05-12T10:48:56.134Z,44.219971
2019-05-12T10:49:56.134Z,45.678711
2019-05-12T10:50:56.198Z,46.142578
2019-05-12T10:51:56.216Z,44.256592
2019-05-12T10:52:56.210Z,43.969727
2019-05-12T10:54:00.004Z,41.18042
2019-05-12T10:54:56.375Z,42.41333
2019-05-12T10:55:56.419Z,42.236328
2019-05-12T10:56:56.406Z,39.562988
2019-05-12T10:58:01.304Z,39.227295
2019-05-12T10:58:56.552Z,38.183594
2019-05-12T10:59:56.551Z,36.94458
2019-05-12T11:00:58.802Z,34.692383
2019-05-12T11:01:56.640Z,35.27832
2019-05-12T11:03:01.406Z,34.747314
2019-05-12T11:03:56.841Z,34.161377
2019-05-12T11:04:56.855Z,34.381104
2019-05-12T11:06:02.322Z,36.029053
2019-05-12T11:06:57.054Z,35.009766
2019-05-12T11:08:00.169Z,38.977051
2019-05-12T11:08:57.037Z,39.434814
2019-05-12T11:09:57.045Z,39.697266
2019-05-12T11:11:00.868Z,41.564941
2019-05-12T11:11:58.138Z,43.4021
2019-05-12T11:12:59.060Z,42.858887
2019-05-12T11:13:57.139Z,45.507812
2019-05-12T11:15:01.117Z,44.720459
2019-05-12T11:15:58.294Z,45.855713
2019-05-12T11:17:01.997Z,45.507812
2019-05-12T11:17:57.326Z,44.116211
2019-05-12T11:19:00.197Z,42.816162
2019-05-12T11:19:57.338Z,43.829346
2019-05-12T11:20:57.370Z,43.52417
2019-05-12T11:21:57.396Z,42.816162
2019-05-12T11:22:57.428Z,42.938232
2019-05-12T11:23:57.432Z,44.799805
2019-05-12T11:24:57.454Z,43.017578
2019-05-12T11:25:57.467Z,43.585205
2019-05-12T11:26:57.485Z,43.603516